Time;durP1;ratioP1;P1;durP2;ratioP2;P2;SDS_P1;SDS_P2;PMS_P1;PMS_P2;Temp;Humidity;BMP_temperature;BMP_pressure;BME280_temperature;BME280_humidity;BME280_pressure;Samples;Min_cycle;Max_cycle;Signal;HPM_P1;HPM_P2
2023/09/05 00:09:41;;;;;;;3.67;2.60;;;;;;;18.63;100.00;98039.66;18303315;32;20070;-57
2023/09/05 00:19:43;;;;;;;3.20;2.50;;;;;;;18.54;100.00;98041.53;18288427;32;20105;-57
2023/09/05 00:29:46;;;;;;;7.95;2.78;;;;;;;18.39;100.00;98031.78;18288540;32;20102;-57
2023/09/05 00:39:48;;;;;;;3.17;2.37;;;;;;;18.31;100.00;98029.78;18287655;32;20438;-57
2023/09/05 00:49:51;;;;;;;3.72;2.47;;;;;;;18.28;100.00;98032.06;18301172;32;20373;-58
2023/09/05 00:59:54;;;;;;;4.55;2.75;;;;;;;18.26;100.00;98031.53;18300871;32;20438;-58
2023/09/05 01:10:15;;;;;;;3.22;2.20;;;;;;;18.24;100.00;98028.31;18300341;32;20133;-58
2023/09/05 01:20:18;;;;;;;4.30;2.40;;;;;;;18.15;100.00;98021.97;18273553;32;20059;-58
2023/09/05 01:30:21;;;;;;;3.03;2.08;;;;;;;18.01;100.00;98024.78;18299219;32;20058;-57
2023/09/05 01:40:24;;;;;;;3.07;2.50;;;;;;;18.01;100.00;98018.50;18298710;32;20583;-58
2023/09/05 01:50:32;;;;;;;4.80;2.63;;;;;;;18.13;100.00;98018.75;18298562;32;20114;-57
2023/09/05 02:00:35;;;;;;;3.10;2.35;;;;;;;18.11;100.00;98023.72;18297769;32;20469;-57
2023/09/05 02:10:37;;;;;;;5.62;2.83;;;;;;;17.99;100.00;98020.72;18297182;32;20062;-57
2023/09/05 02:20:41;;;;;;;2.90;2.12;;;;;;;17.93;100.00;98020.03;18296750;32;20066;-57
2023/09/05 02:30:44;;;;;;;;;;;;;;;17.82;100.00;98032.31;18296424;32;20058;-58
2023/09/05 02:40:47;;;;;;;3.58;2.30;;;;;;;17.67;100.00;98038.94;18295938;32;19987;-57
2023/09/05 02:51:02;;;;;;;4.87;2.40;;;;;;;17.54;100.00;98057.81;18269668;32;20105;-57
2023/09/05 03:01:09;;;;;;;4.03;2.95;;;;;;;17.37;100.00;98049.41;18295242;32;20046;-57
2023/09/05 03:11:18;;;;;;;3.03;2.30;;;;;;;17.21;100.00;98041.53;18294692;32;20450;-57
2023/09/05 03:21:22;;;;;;;3.03;2.17;;;;;;;17.06;100.00;98039.09;18294295;32;20113;-57
2023/09/05 03:31:26;;;;;;;3.17;2.37;;;;;;;16.93;100.00;98041.50;18303002;32;20437;-57
2023/09/05 03:41:28;;;;;;;3.20;1.85;;;;;;;16.83;100.00;98058.09;18304541;32;20054;-57
2023/09/05 03:51:32;;;;;;;2.90;2.10;;;;;;;16.74;100.00;98070.81;18290665;32;20068;-58
2023/09/05 04:01:36;;;;;;;3.77;2.90;;;;;;;16.68;100.00;98067.34;18290472;32;20162;-57
2023/09/05 04:11:39;;;;;;;3.95;2.80;;;;;;;16.59;100.00;98067.25;18289047;32;20086;-57
2023/09/05 04:21:42;;;;;;;4.53;2.45;;;;;;;16.53;100.00;98071.16;18302930;32;20070;-57
2023/09/05 04:31:44;;;;;;;2.65;2.30;;;;;;;16.52;100.00;98085.12;18302649;32;20438;-57
2023/09/05 04:41:48;;;;;;;3.53;2.35;;;;;;;16.59;100.00;98093.72;18301464;32;20468;-57
2023/09/05 04:51:51;;;;;;;7.35;2.75;;;;;;;16.59;100.00;98108.19;18287716;32;20053;-57
2023/09/05 05:01:53;;;;;;;4.95;2.60;;;;;;;16.50;100.00;98122.81;18300776;32;20062;-58
2023/09/05 05:11:56;;;;;;;4.82;2.58;;;;;;;16.37;100.00;98121.66;18299972;32;20106;-57
2023/09/05 05:21:59;;;;;;;4.03;2.95;;;;;;;16.21;100.00;98129.25;18299708;32;20058;-57
2023/09/05 05:32:02;;;;;;;2.92;2.50;;;;;;;16.08;100.00;98131.63;18299782;32;20121;-57
2023/09/05 05:42:05;;;;;;;5.50;3.03;;;;;;;15.98;100.00;98141.84;18298483;32;20442;-57
2023/09/05 05:52:10;;;;;;;4.60;2.90;;;;;;;15.96;100.00;98144.06;18297965;32;20069;-57
2023/09/05 06:02:16;;;;;;;3.75;2.30;;;;;;;16.06;100.00;98154.84;18298189;32;20070;-57
2023/09/05 06:12:28;;;;;;;5.12;2.97;;;;;;;16.23;100.00;98148.87;18297383;32;20122;-57
2023/09/05 06:22:31;;;;;;;3.42;2.53;;;;;;;16.40;100.00;98156.53;18283230;32;20046;-57
2023/09/05 06:32:34;;;;;;;3.53;3.00;;;;;;;16.57;100.00;98153.28;18296376;32;20050;-57
2023/09/05 06:42:37;;;;;;;5.07;2.63;;;;;;;16.80;100.00;98154.28;18295765;32;20053;-57
2023/09/05 06:52:41;;;;;;;3.55;2.70;;;;;;;17.09;100.00;98145.06;18295468;32;20046;-57
2023/09/05 07:02:44;;;;;;;3.00;2.30;;;;;;;17.43;100.00;98163.00;18294424;32;20070;-57
2023/09/05 07:12:47;;;;;;;3.10;2.30;;;;;;;17.84;100.00;98145.78;18280867;32;20176;-57
2023/09/05 07:22:50;;;;;;;;;;;;;;;18.40;100.00;98140.19;18280639;32;20079;-57
2023/09/05 07:32:53;;;;;;;2.92;2.15;;;;;;;18.95;100.00;98145.44;18293704;32;20001;-57
2023/09/05 07:42:56;;;;;;;2.80;2.03;;;;;;;19.37;100.00;98133.37;18293456;32;20088;-57
2023/09/05 07:52:59;;;;;;;3.65;2.30;;;;;;;19.85;100.00;98146.28;18278648;32;20094;-57
2023/09/05 08:03:03;;;;;;;3.00;2.33;;;;;;;20.17;100.00;98155.22;18292651;32;20123;-57
2023/09/05 08:13:07;;;;;;;2.30;1.95;;;;;;;20.57;100.00;98157.81;18296379;32;20076;-57
2023/09/05 08:23:11;;;;;;;4.47;2.30;;;;;;;21.01;100.00;98170.72;18289060;32;20092;-57
2023/09/05 08:33:14;;;;;;;3.40;2.40;;;;;;;21.39;100.00;98161.72;18302123;32;20084;-57
2023/09/05 08:43:17;;;;;;;3.22;2.25;;;;;;;21.61;98.95;98149.66;18301628;32;20084;-57
2023/09/05 08:53:28;;;;;;;3.28;2.00;;;;;;;21.88;95.10;98142.88;18301459;32;20060;-57
2023/09/05 09:03:35;;;;;;;5.37;2.00;;;;;;;22.16;93.81;98128.63;18300994;32;20076;-58
2023/09/05 09:13:41;;;;;;;3.78;2.55;;;;;;;22.43;95.08;98130.06;18300149;32;20460;-57
2023/09/05 09:23:45;;;;;;;3.85;2.60;;;;;;;22.72;95.31;98133.03;18284677;32;20099;-58
2023/09/05 09:33:57;;;;;;;3.85;2.92;;;;;;;22.96;92.22;98141.37;18295862;32;20054;-57
2023/09/05 09:44:00;;;;;;;3.43;2.50;;;;;;;23.21;95.60;98135.94;18234420;32;20076;-58
2023/09/05 09:54:06;;;;;;;;;;;;;;;23.45;89.37;98132.41;18236032;32;20142;-58
2023/09/05 10:04:09;;;;;;;5.65;2.90;;;;;;;23.64;91.80;98120.78;18235997;32;19957;-58
2023/09/05 10:14:15;;;;;;;2.92;2.60;;;;;;;23.87;89.44;98123.06;18221221;32;20454;-57
2023/09/05 10:24:18;;;;;;;2.75;2.40;;;;;;;24.08;90.12;98111.91;18234300;32;20081;-58
2023/09/05 10:34:45;;;;;;;3.87;2.90;;;;;;;24.33;91.47;98107.09;18234275;32;20421;-58
2023/09/05 10:44:51;;;;;;;4.45;3.08;;;;;;;24.50;90.87;98105.19;18291662;32;20046;-57
2023/09/05 10:54:54;;;;;;;3.53;2.85;;;;;;;24.85;91.53;98091.56;18295565;32;20054;-57
2023/09/05 11:04:57;;;;;;;3.53;2.80;;;;;;;25.25;90.86;98083.47;18281182;32;20077;-57
2023/09/05 11:15:01;;;;;;;3.53;2.97;;;;;;;25.57;94.63;98078.72;18294710;32;20117;-57
2023/09/05 11:25:07;;;;;;;4.35;3.22;;;;;;;25.93;89.41;98057.41;18280844;32;20066;-57
2023/09/05 11:35:11;;;;;;;4.40;2.95;;;;;;;26.20;87.72;98043.72;18294323;32;20075;-57
2023/09/05 11:45:18;;;;;;;4.28;3.10;;;;;;;26.65;91.13;98033.87;18294360;32;20113;-57
2023/09/05 11:55:24;;;;;;;4.35;3.22;;;;;;;27.07;87.19;98026.72;18290455;32;20053;-57
2023/09/05 12:05:28;;;;;;;5.72;3.25;;;;;;;27.50;87.63;98012.72;18303922;32;20117;-58
2023/09/05 12:15:33;;;;;;;3.12;2.70;;;;;;;27.80;79.19;97995.25;18289160;32;20049;-58
2023/09/05 12:25:47;;;;;;;3.37;2.87;;;;;;;28.14;78.57;97979.44;18302885;32;20398;-58
2023/09/05 12:35:58;;;;;;;3.53;2.75;;;;;;;28.56;76.48;97980.28;18302217;32;20093;-58
2023/09/05 12:46:03;;;;;;;3.55;2.87;;;;;;;28.96;71.10;97984.22;18301846;32;20050;-58
2023/09/05 12:56:08;;;;;;;5.20;2.75;;;;;;;29.33;62.44;97963.81;18301252;32;20136;-58
2023/09/05 13:06:12;;;;;;;2.60;2.40;;;;;;;29.72;65.68;97971.63;18301296;32;20101;-58
2023/09/05 13:16:16;;;;;;;2.97;2.40;;;;;;;30.28;62.33;97960.25;18286800;32;20080;-58
2023/09/05 13:26:20;;;;;;;2.80;2.53;;;;;;;30.85;59.16;97950.37;18299830;32;20084;-58
2023/09/05 13:36:24;;;;;;;3.80;2.53;;;;;;;31.33;57.94;97951.94;18299057;32;20089;-58
2023/09/05 13:46:27;;;;;;;3.33;2.65;;;;;;;31.57;55.97;97936.31;18298859;32;20100;-58
2023/09/05 13:56:30;;;;;;;2.75;2.53;;;;;;;32.01;55.42;97932.16;18297784;32;20104;-58
2023/09/05 14:06:33;;;;;;;3.65;2.67;;;;;;;32.17;54.87;97906.53;18297896;32;20069;-58
2023/09/05 14:16:38;;;;;;;6.00;2.28;;;;;;;32.46;54.67;97902.72;18297277;32;20124;-58
2023/09/05 14:26:41;;;;;;;3.55;2.67;;;;;;;31.70;53.57;97898.37;18258300;32;20145;-58
2023/09/05 14:36:45;;;;;;;3.72;2.80;;;;;;;30.92;51.26;97886.16;18296408;32;20046;-57
2023/09/05 14:46:50;;;;;;;3.12;2.67;;;;;;;30.50;50.44;97873.84;18295751;32;20374;-57
2023/09/05 14:56:54;;;;;;;6.37;3.15;;;;;;;30.00;53.89;97866.19;18295591;32;20140;-58
2023/09/05 15:07:00;;;;;;;7.95;2.53;;;;;;;29.57;56.21;97855.69;18294845;32;20066;-57
2023/09/05 15:17:07;;;;;;;3.53;2.58;;;;;;;29.24;54.36;97857.50;18294664;32;20068;-58
2023/09/05 15:27:12;;;;;;;3.20;2.62;;;;;;;29.04;53.05;97852.25;18293337;32;20080;-57
2023/09/05 15:37:16;;;;;;;2.65;2.17;;;;;;;28.85;51.78;97846.97;18280397;32;20087;-57
2023/09/05 15:47:19;;;;;;;4.82;2.45;;;;;;;28.42;57.01;97849.41;18293275;32;20071;-57
2023/09/05 15:57:22;;;;;;;2.80;2.45;;;;;;;28.03;58.87;97862.56;18279246;32;20106;-57
2023/09/05 16:07:25;;;;;;;3.15;2.30;;;;;;;27.55;71.66;97843.75;18279053;32;20100;-57
2023/09/05 16:17:28;;;;;;;4.30;2.90;;;;;;;27.07;80.31;97849.09;18292408;32;20058;-57
2023/09/05 16:27:31;;;;;;;3.37;2.65;;;;;;;26.68;88.24;97854.84;18291641;32;20358;-57
2023/09/05 16:37:34;;;;;;;3.65;2.42;;;;;;;26.28;96.16;97843.13;18299031;32;20083;-56
2023/09/05 16:47:37;;;;;;;3.40;2.50;;;;;;;25.87;100.00;97851.06;18287911;32;20069;-56
2023/09/05 16:57:40;;;;;;;3.53;2.28;;;;;;;25.47;100.00;97852.28;18301083;32;20097;-57
2023/09/05 17:07:43;;;;;;;4.65;2.37;;;;;;;25.11;100.00;97862.59;18300860;32;20062;-57
2023/09/05 17:17:46;;;;;;;4.18;2.80;;;;;;;24.72;100.00;97851.44;18300466;32;20058;-56
2023/09/05 17:27:51;;;;;;;5.12;2.17;;;;;;;24.29;100.00;97857.50;18299535;32;20080;-56
2023/09/05 17:37:58;;;;;;;6.28;4.55;;;;;;;23.89;100.00;97863.19;18298978;32;20097;-57
2023/09/05 17:48:01;;;;;;;13.90;9.45;;;;;;;23.48;100.00;97858.50;18298057;32;20094;-57
2023/09/05 17:58:05;;;;;;;12.30;7.53;;;;;;;23.08;100.00;97863.97;18298563;32;20081;-57
2023/09/05 18:08:08;;;;;;;8.77;5.57;;;;;;;22.76;100.00;97883.09;18297719;32;20114;-57
2023/09/05 18:18:11;;;;;;;;;;;;;;;22.44;100.00;97894.69;18297523;32;20080;-57
2023/09/05 18:28:15;;;;;;;11.90;9.20;;;;;;;22.15;100.00;97892.91;18283169;32;19945;-57
2023/09/05 18:38:18;;;;;;;11.20;4.10;;;;;;;21.83;100.00;97904.41;18295774;32;20062;-56
2023/09/05 18:48:21;;;;;;;9.43;3.50;;;;;;;21.53;100.00;97909.22;18295874;32;20054;-56
2023/09/05 18:58:25;;;;;;;9.23;3.55;;;;;;;21.23;100.00;97923.00;18295199;32;20066;-57
2023/09/05 19:08:29;;;;;;;8.82;3.30;;;;;;;20.93;100.00;97934.03;18281010;32;20437;-56
2023/09/05 19:18:33;;;;;;;3.90;3.08;;;;;;;20.65;100.00;97944.63;18294590;32;20109;-56
2023/09/05 19:28:37;;;;;;;5.53;2.95;;;;;;;20.41;100.00;97953.47;18294293;32;20176;-56
2023/09/05 19:38:41;;;;;;;4.82;2.37;;;;;;;20.17;100.00;97952.06;18293701;32;20105;-56
2023/09/05 19:48:45;;;;;;;4.28;3.12;;;;;;;19.92;100.00;97967.44;18279428;32;20054;-56
2023/09/05 19:58:48;;;;;;;5.20;3.20;;;;;;;19.68;100.00;97968.72;18292966;32;20137;-56
2023/09/05 20:08:51;;;;;;;8.55;2.78;;;;;;;19.47;100.00;97972.09;18296742;32;20073;-56
2023/09/05 20:18:54;;;;;;;5.32;2.80;;;;;;;19.24;100.00;97971.41;18303431;32;20061;-56
2023/09/05 20:28:58;;;;;;;;;;;;;;;19.04;100.00;97969.28;18289887;32;20122;-56
2023/09/05 20:39:01;;;;;;;3.83;2.50;;;;;;;18.88;100.00;97979.84;18302362;32;19945;-56
2023/09/05 20:49:04;;;;;;;4.22;2.50;;;;;;;18.69;100.00;97982.81;18301800;32;20058;-56
2023/09/05 20:59:10;;;;;;;4.07;2.17;;;;;;;18.48;100.00;97974.34;18287819;32;20090;-56
2023/09/05 21:09:17;;;;;;;5.07;2.25;;;;;;;18.28;100.00;97973.75;18286942;32;20076;-56
2023/09/05 21:19:21;;;;;;;4.43;2.78;;;;;;;18.05;100.00;97973.78;18299818;32;20327;-56
2023/09/05 21:29:24;;;;;;;6.97;2.73;;;;;;;17.87;100.00;97986.50;18299782;32;20121;-56
2023/09/05 21:39:29;;;;;;;2.70;1.85;;;;;;;17.75;100.00;97994.44;18299033;32;20049;-56
2023/09/05 21:49:32;;;;;;;6.62;2.70;;;;;;;17.66;100.00;97985.34;18299203;32;20084;-56
2023/09/05 21:59:34;;;;;;;3.63;2.53;;;;;;;17.54;100.00;97978.50;18298155;32;20066;-56
2023/09/05 22:09:38;;;;;;;4.03;2.25;;;;;;;17.38;100.00;97977.25;18284434;32;20060;-56
2023/09/05 22:19:42;;;;;;;5.90;2.62;;;;;;;17.32;100.00;97973.00;18297419;32;20046;-55
2023/09/05 22:29:45;;;;;;;5.60;2.12;;;;;;;17.28;100.00;97979.06;18296964;32;20084;-56
2023/09/05 22:39:47;;;;;;;6.87;2.33;;;;;;;17.26;100.00;97983.22;18282906;32;20365;-56
2023/09/05 22:49:50;;;;;;;4.10;1.70;;;;;;;17.25;100.00;97976.97;18296028;32;20069;-56
2023/09/05 22:59:52;;;;;;;2.90;1.90;;;;;;;17.27;100.00;97985.66;18295274;32;20404;-57
2023/09/05 23:09:55;;;;;;;2.58;1.98;;;;;;;17.19;100.00;97985.56;18295292;32;20113;-57
2023/09/05 23:20:01;;;;;;;3.03;1.80;;;;;;;17.08;100.00;97993.16;18294858;32;20490;-56
2023/09/05 23:30:04;;;;;;;4.68;2.20;;;;;;;17.00;100.00;97999.34;18294441;32;20054;-55
2023/09/05 23:40:08;;;;;;;2.60;2.10;;;;;;;16.91;100.00;98010.16;18293783;32;20094;-56
2023/09/05 23:50:12;;;;;;;4.07;1.90;;;;;;;16.77;100.00;98004.66;18291481;32;20105;-55
